EmailTwitter


Surface observations / United Kingdom / EGLL (03772)

Regions: Quebec | Canada | USA | Europe | France | UK | Elsewhere
Station
Display
Info & Location for EGLL (03772) | Help decoding METAR

Weather Conditions observed on 2018/06/18 at 20:20 UTC at LONDON/HEATHROW, UK (EGLL)

Sky conditions: partly cloudy.

Temperature: 19.0 Celsius.

Dewpoint: 15.0 Celsius.

Relative Humidity: 78%

Humidex: 23.

Winds: Southwest at 22 km/h or 12 knots.

Mean Sea level Pressure: 102.00 kilopascals.

Horizontal visibility: 6.21 statute miles or 9.94 kilometers.

Height of the Ceiling: 1128 metres ( 3700 feet ).

Coded METAR:

EGLL 182020Z AUTO 23012KT 9999 BKN037 19/15 Q1020 TEMPO BKN014=